Time;durP1;ratioP1;P1;durP2;ratioP2;P2;SDS_P1;SDS_P2;PMS_P1;PMS_P2;Temp;Humidity;BMP_temperature;BMP_pressure;BME280_temperature;BME280_humidity;BME280_pressure;Samples;Min_cycle;Max_cycle;Signal;HPM_P1;HPM_P2
2022/05/26 00:01:59;;;;;;;2.10;2.10;;;22.60;60.40;;;;;;5089985;28;20455;-71
2022/05/26 00:04:28;;;;;;;2.40;2.40;;;22.60;60.50;;;;;;5072981;28;20449;-72
2022/05/26 00:06:55;;;;;;;2.00;2.00;;;22.60;60.60;;;;;;5072534;28;20990;-71
2022/05/26 00:09:22;;;;;;;2.30;2.30;;;22.50;60.50;;;;;;5072112;28;20447;-71
2022/05/26 00:11:49;;;;;;;2.40;2.40;;;22.50;60.70;;;;;;5088163;28;20457;-70
2022/05/26 00:14:16;;;;;;;2.03;2.03;;;22.60;60.80;;;;;;5093042;28;20445;-71
2022/05/26 00:16:45;;;;;;;1.80;1.80;;;22.50;60.70;;;;;;5092990;28;20445;-72
2022/05/26 00:19:13;;;;;;;2.27;2.23;;;22.50;60.80;;;;;;5092811;28;20445;-70
2022/05/26 00:21:41;;;;;;;2.03;2.03;;;22.50;60.80;;;;;;5078637;28;20443;-71
2022/05/26 00:24:10;;;;;;;2.10;2.10;;;22.50;60.90;;;;;;5072578;28;20546;-71
2022/05/26 00:26:37;;;;;;;2.50;2.50;;;22.50;61.00;;;;;;5072345;28;20795;-71
2022/05/26 00:29:04;;;;;;;2.50;2.30;;;22.50;61.00;;;;;;5072106;28;20490;-71
2022/05/26 00:31:31;;;;;;;2.53;2.10;;;22.50;61.10;;;;;;5084763;28;20465;-71
2022/05/26 00:33:58;;;;;;;2.27;2.27;;;22.50;61.10;;;;;;5091905;28;20511;-71
2022/05/26 00:36:38;;;;;;;2.37;2.37;;;22.50;61.10;;;;;;5092827;28;20446;-70
2022/05/26 00:39:08;;;;;;;2.00;2.00;;;22.50;61.10;;;;;;5092467;28;20439;-71
2022/05/26 00:41:38;;;;;;;2.43;2.43;;;22.50;61.30;;;;;;5079373;28;20454;-71
2022/05/26 00:44:05;;;;;;;2.20;2.10;;;22.50;61.30;;;;;;5072540;28;20443;-70
2022/05/26 00:46:39;;;;;;;2.20;2.20;;;22.50;61.30;;;;;;5072093;28;20443;-71
2022/05/26 00:49:09;;;;;;;2.30;2.30;;;22.50;61.40;;;;;;5071875;28;20482;-72
2022/05/26 00:51:38;;;;;;;2.40;2.40;;;22.50;61.40;;;;;;5084563;28;20470;-71
2022/05/26 00:54:13;;;;;;;2.10;1.97;;;22.50;61.40;;;;;;5092427;28;20779;-71
2022/05/26 00:56:44;;;;;;;2.00;2.00;;;22.50;61.50;;;;;;5092487;28;20524;-71
2022/05/26 00:59:15;;;;;;;2.30;2.20;;;22.50;61.50;;;;;;5085605;28;20965;-71
2022/05/26 01:01:42;;;;;;;1.93;1.93;;;22.50;61.60;;;;;;5072142;28;20470;-72
2022/05/26 01:04:12;;;;;;;2.00;2.00;;;22.50;61.60;;;;;;5071803;28;20454;-71
2022/05/26 01:06:44;;;;;;;2.00;2.00;;;22.50;61.70;;;;;;5071847;28;20447;-71
2022/05/26 01:09:13;;;;;;;2.47;2.37;;;22.50;61.70;;;;;;5077822;28;20485;-70
2022/05/26 01:11:42;;;;;;;2.10;2.10;;;22.50;61.70;;;;;;5092085;28;20827;-71
2022/05/26 01:14:15;;;;;;;2.30;2.30;;;22.50;62.60;;;;;;5092160;28;20449;-71
2022/05/26 01:16:52;;;;;;;1.90;1.90;;;22.50;61.90;;;;;;5091984;28;20438;-71
2022/05/26 01:19:36;;;;;;;2.03;2.03;;;22.40;61.80;;;;;;5084582;28;20968;-71
2022/05/26 01:22:14;;;;;;;1.90;1.90;;;22.50;62.00;;;;;;5071856;28;21010;-71
2022/05/26 01:25:03;;;;;;;2.10;2.10;;;22.40;61.90;;;;;;5071534;28;20447;-71
2022/05/26 01:27:34;;;;;;;2.20;2.10;;;22.50;62.00;;;;;;5071189;28;20978;-70
2022/05/26 01:30:21;;;;;;;2.13;2.07;;;22.40;62.10;;;;;;5084026;28;20465;-71
2022/05/26 01:33:08;;;;;;;2.27;2.27;;;22.40;62.80;;;;;;5090021;28;20458;-71
2022/05/26 01:35:39;;;;;;;2.07;2.07;;;22.40;62.20;;;;;;5091695;28;20446;-71
2022/05/26 01:38:22;;;;;;;3.47;3.37;;;22.40;62.20;;;;;;5091385;28;20977;-71
2022/05/26 01:40:55;;;;;;;1.80;1.80;;;22.40;62.20;;;;;;5072461;28;20443;-70
2022/05/26 01:43:29;;;;;;;2.00;2.00;;;22.40;62.40;;;;;;5071494;28;20451;-71
2022/05/26 01:46:02;;;;;;;2.10;2.10;;;22.40;62.30;;;;;;5071534;28;20806;-71
2022/05/26 01:48:41;;;;;;;2.10;2.00;;;22.40;62.40;;;;;;5070986;28;20479;-71
2022/05/26 01:51:16;;;;;;;2.40;2.30;;;22.40;62.40;;;;;;5071455;28;20443;-71
2022/05/26 01:53:50;;;;;;;2.30;2.30;;;22.40;62.60;;;;;;5071325;28;20454;-71
2022/05/26 01:56:21;;;;;;;2.00;2.00;;;22.40;62.60;;;;;;5071519;28;20443;-70
2022/05/26 01:58:55;;;;;;;2.30;2.20;;;22.40;62.60;;;;;;5072450;28;20467;-71
2022/05/26 02:01:25;;;;;;;2.10;2.10;;;22.40;62.60;;;;;;5091454;28;20450;-71
2022/05/26 02:03:58;;;;;;;2.50;2.40;;;22.40;62.70;;;;;;5091446;28;20438;-70
2022/05/26 02:06:30;;;;;;;2.27;2.20;;;22.40;62.80;;;;;;5091732;28;20452;-71
2022/05/26 02:09:00;;;;;;;2.03;2.03;;;22.40;62.90;;;;;;5074013;28;20490;-71
2022/05/26 02:11:27;;;;;;;2.00;2.00;;;22.40;62.90;;;;;;5071550;28;20439;-71
2022/05/26 02:13:58;;;;;;;2.10;2.10;;;22.40;62.80;;;;;;5071206;28;21259;-70
2022/05/26 02:16:31;;;;;;;2.30;2.30;;;22.40;62.90;;;;;;5080223;28;20458;-71
2022/05/26 02:19:07;;;;;;;2.10;2.10;;;22.40;62.90;;;;;;5091042;28;20458;-71
2022/05/26 02:21:39;;;;;;;2.10;2.10;;;22.40;62.90;;;;;;5091444;28;20452;-70
2022/05/26 02:24:09;;;;;;;2.63;2.50;;;22.40;63.00;;;;;;5091505;28;20449;-70
2022/05/26 02:26:37;;;;;;;2.30;2.30;;;22.40;63.00;;;;;;5080217;28;20451;-70
2022/05/26 02:31:50;;;;;;;2.03;2.03;;;22.40;63.10;;;;;;5070185;28;20541;-71
2022/05/26 02:34:19;;;;;;;2.37;2.37;;;22.40;63.20;;;;;;5073525;28;20439;-71
2022/05/26 02:36:47;;;;;;;2.13;2.13;;;22.40;63.20;;;;;;5084747;28;20438;-71
2022/05/26 02:39:14;;;;;;;2.20;2.10;;;22.40;63.30;;;;;;5093834;28;20442;-72
2022/05/26 02:41:42;;;;;;;2.50;2.50;;;22.40;63.30;;;;;;5093917;28;20442;-71
2022/05/26 02:44:10;;;;;;;2.30;2.30;;;22.40;63.30;;;;;;5093604;28;20867;-71
2022/05/26 02:46:54;;;;;;;2.07;2.07;;;22.40;63.40;;;;;;5082645;28;20787;-71
2022/05/26 02:49:38;;;;;;;2.10;2.10;;;22.40;63.50;;;;;;5073299;28;20506;-72
2022/05/26 02:52:14;;;;;;;2.20;2.20;;;22.40;63.50;;;;;;5073568;28;20443;-71
2022/05/26 02:54:52;;;;;;;2.07;1.97;;;22.40;63.60;;;;;;5073179;28;20801;-71
2022/05/26 02:57:25;;;;;;;2.57;2.47;;;22.40;63.60;;;;;;5088732;28;20462;-70
2022/05/26 03:00:01;;;;;;;2.13;2.13;;;22.40;63.70;;;;;;5093298;28;20499;-71
2022/05/26 03:02:37;;;;;;;2.20;2.10;;;22.40;63.80;;;;;;5093317;28;20469;-71
2022/05/26 03:05:09;;;;;;;2.10;2.00;;;22.40;63.90;;;;;;5093225;28;20453;-70
2022/05/26 03:07:42;;;;;;;2.00;2.00;;;22.40;63.90;;;;;;5074289;28;20467;-70
2022/05/26 03:10:10;;;;;;;2.20;2.20;;;22.40;64.00;;;;;;5072881;28;21043;-70
2022/05/26 03:12:37;;;;;;;2.30;2.30;;;22.30;64.00;;;;;;5072861;28;20446;-70
2022/05/26 03:15:06;;;;;;;2.00;2.00;;;22.40;64.10;;;;;;5072919;28;20446;-70
2022/05/26 03:17:33;;;;;;;2.10;2.10;;;22.40;64.10;;;;;;5089966;28;20466;-71
2022/05/26 03:20:00;;;;;;;2.27;2.17;;;22.40;64.20;;;;;;5092952;28;20446;-66
2022/05/26 03:22:28;;;;;;;1.90;1.90;;;22.40;64.10;;;;;;5092990;28;20442;-65
2022/05/26 03:24:55;;;;;;;2.43;2.33;;;22.40;64.90;;;;;;5092977;28;20446;-66
2022/05/26 03:27:22;;;;;;;2.50;2.40;;;22.40;65.10;;;;;;5039612;28;1060884;-66
2022/05/26 03:29:49;;;;;;;2.70;2.70;;;22.40;65.80;;;;;;5073505;28;20714;-62
2022/05/26 03:32:15;;;;;;;2.50;2.43;;;22.40;65.20;;;;;;5073616;28;20475;-67
2022/05/26 03:42:59;;;;;;;2.63;2.63;;;22.40;66.30;;;;;;5093448;28;20430;-69
2022/05/26 03:45:26;;;;;;;2.67;2.57;;;22.50;67.30;;;;;;5093355;28;20500;-72
2022/05/26 03:47:53;;;;;;;2.50;2.40;;;22.50;68.10;;;;;;5074392;28;20478;-72
2022/05/26 03:50:20;;;;;;;2.37;2.27;;;22.50;68.30;;;;;;5075733;28;21088;-71
2022/05/26 03:52:48;;;;;;;3.07;2.97;;;22.50;68.50;;;;;;5075891;28;21012;-71
2022/05/26 03:55:16;;;;;;;2.67;2.67;;;22.50;68.60;;;;;;5075274;28;20451;-69
2022/05/26 03:57:44;;;;;;;2.30;2.30;;;22.60;68.30;;;;;;5092605;28;20474;-67
2022/05/26 04:00:12;;;;;;;2.27;2.27;;;22.50;67.70;;;;;;5094507;28;20439;-69
2022/05/26 04:02:40;;;;;;;3.30;2.97;;;22.50;67.60;;;;;;5095026;28;20450;-73
2022/05/26 04:05:09;;;;;;;2.40;2.40;;;22.50;68.10;;;;;;5095714;28;20450;-71
2022/05/26 04:07:36;;;;;;;2.73;2.73;;;22.60;68.80;;;;;;5078955;28;20471;-73
2022/05/26 04:10:06;;;;;;;2.47;2.37;;;22.60;69.00;;;;;;5074721;28;21047;-73
2022/05/26 04:12:33;;;;;;;2.90;2.83;;;22.60;69.00;;;;;;5074236;28;20812;-73
2022/05/26 04:15:02;;;;;;;3.00;2.80;;;22.60;69.40;;;;;;5074715;28;20787;-71
2022/05/26 04:17:29;;;;;;;3.10;3.10;;;22.60;70.10;;;;;;5074346;28;21000;-73
2022/05/26 04:19:56;;;;;;;3.00;2.80;;;22.60;69.40;;;;;;5073800;28;20466;-69
2022/05/26 04:22:24;;;;;;;2.40;2.30;;;22.60;69.70;;;;;;5074362;28;20443;-68
2022/05/26 04:24:54;;;;;;;2.70;2.70;;;22.60;69.70;;;;;;5093718;28;20446;-68
2022/05/26 04:27:25;;;;;;;2.47;2.47;;;22.70;69.90;;;;;;5094009;28;20480;-66
2022/05/26 04:29:53;;;;;;;2.63;2.63;;;22.70;69.60;;;;;;5094232;28;20561;-71
2022/05/26 04:32:21;;;;;;;2.60;2.50;;;22.70;69.70;;;;;;5093003;28;20434;-70
2022/05/26 04:34:50;;;;;;;3.00;2.90;;;22.70;69.90;;;;;;5073938;28;20542;-72
2022/05/26 04:37:17;;;;;;;3.00;2.90;;;22.70;70.10;;;;;;5073476;28;20471;-69
2022/05/26 04:39:45;;;;;;;2.67;2.60;;;22.70;70.10;;;;;;5073689;28;20443;-69
2022/05/26 04:42:13;;;;;;;2.93;2.93;;;22.70;70.20;;;;;;5073561;28;20450;-70
2022/05/26 04:44:44;;;;;;;2.80;2.80;;;22.70;70.30;;;;;;5073256;28;20930;-68
2022/05/26 04:47:14;;;;;;;2.70;2.70;;;22.70;70.40;;;;;;5073118;28;20546;-67
2022/05/26 04:49:41;;;;;;;2.90;2.70;;;22.70;70.40;;;;;;5073293;28;20571;-69
2022/05/26 04:52:10;;;;;;;3.20;3.13;;;22.70;70.90;;;;;;5073486;28;20443;-72
2022/05/26 04:54:37;;;;;;;3.13;3.00;;;22.80;70.80;;;;;;5092424;28;20451;-70
2022/05/26 04:57:05;;;;;;;3.63;3.53;;;22.80;70.80;;;;;;5094041;28;20462;-70
2022/05/26 04:59:33;;;;;;;3.50;3.20;;;22.80;70.70;;;;;;5093813;28;20447;-71
2022/05/26 05:02:02;;;;;;;2.80;2.70;;;22.80;70.60;;;;;;5093864;28;20515;-71
2022/05/26 05:04:29;;;;;;;2.90;2.90;;;22.70;70.50;;;;;;5076215;28;20447;-70
2022/05/26 05:06:57;;;;;;;2.87;2.77;;;22.70;70.70;;;;;;5073101;28;20495;-70
2022/05/26 05:09:24;;;;;;;3.13;3.03;;;22.70;70.80;;;;;;5073038;28;20920;-70
2022/05/26 05:11:52;;;;;;;3.07;3.07;;;22.70;70.30;;;;;;5072340;28;20526;-70
2022/05/26 05:14:19;;;;;;;3.17;3.07;;;22.70;70.10;;;;;;5087300;28;20465;-70
2022/05/26 05:16:46;;;;;;;4.37;4.17;;;22.70;70.00;;;;;;5091952;28;20438;-70
2022/05/26 05:19:18;;;;;;;3.67;3.47;;;22.70;70.20;;;;;;5092195;28;20464;-70
2022/05/26 05:21:50;;;;;;;7.40;4.50;;;22.70;70.90;;;;;;5083875;28;20452;-70
2022/05/26 05:24:21;;;;;;;6.20;4.90;;;22.70;71.80;;;;;;5072435;28;20440;-69
2022/05/26 05:26:52;;;;;;;5.07;4.67;;;22.80;74.30;;;;;;5072200;28;20512;-69
2022/05/26 05:29:21;;;;;;;9.90;4.83;;;22.80;74.50;;;;;;5072330;28;21009;-71
2022/05/26 05:31:55;;;;;;;17.77;5.70;;;22.80;78.20;;;;;;5080521;28;20998;-69
2022/05/26 05:34:28;;;;;;;12.30;6.30;;;22.90;82.60;;;;;;5092794;28;20442;-69
2022/05/26 05:36:56;;;;;;;8.80;5.33;;;22.90;86.30;;;;;;5092073;28;21281;-70
2022/05/26 05:39:24;;;;;;;9.20;5.23;;;22.90;87.00;;;;;;5092759;28;21131;-70
2022/05/26 05:41:54;;;;;;;5.67;4.87;;;23.00;87.30;;;;;;5090253;28;20446;-70
2022/05/26 05:44:21;;;;;;;7.60;5.00;;;23.00;87.30;;;;;;5091828;28;20442;-70
2022/05/26 05:46:54;;;;;;;5.83;5.10;;;23.00;87.20;;;;;;5092499;28;20499;-70
2022/05/26 05:49:24;;;;;;;4.63;4.20;;;23.00;87.00;;;;;;5092205;28;20635;-70
2022/05/26 05:51:51;;;;;;;4.63;4.33;;;23.00;87.60;;;;;;5084244;28;20446;-72
2022/05/26 05:54:19;;;;;;;8.50;4.87;;;22.90;86.40;;;;;;5071925;28;20450;-70
2022/05/26 05:56:47;;;;;;;5.73;5.23;;;23.00;87.60;;;;;;5072270;28;20450;-71
2022/05/26 05:59:14;;;;;;;7.00;5.30;;;23.00;87.50;;;;;;5071804;28;20439;-71
2022/05/26 06:01:41;;;;;;;5.00;4.60;;;23.00;87.40;;;;;;5078111;28;20453;-71
2022/05/26 06:04:08;;;;;;;5.77;5.23;;;23.00;87.30;;;;;;5092257;28;20442;-72
2022/05/26 06:06:38;;;;;;;4.40;4.20;;;23.10;87.30;;;;;;5091979;28;20456;-71
2022/05/26 06:09:06;;;;;;;4.80;4.40;;;23.10;87.10;;;;;;5096332;28;20478;-72
2022/05/26 06:11:33;;;;;;;4.80;4.50;;;23.10;87.40;;;;;;5095858;28;20445;-69
2022/05/26 06:14:00;;;;;;;4.40;4.20;;;23.10;87.50;;;;;;5096623;28;20446;-71
2022/05/26 06:16:29;;;;;;;4.60;4.40;;;23.10;87.50;;;;;;5096140;28;20438;-71
2022/05/26 06:18:56;;;;;;;4.10;3.90;;;23.10;87.90;;;;;;5095378;28;20478;-71
2022/05/26 06:21:23;;;;;;;8.67;5.30;;;23.00;87.40;;;;;;5091919;28;20457;-69
2022/05/26 06:23:53;;;;;;;5.00;4.70;;;23.00;86.50;;;;;;5074944;28;20443;-70
2022/05/26 06:26:20;;;;;;;5.30;4.90;;;23.00;87.30;;;;;;5074931;28;20806;-70
2022/05/26 06:31:31;;;;;;;5.77;5.27;;;23.00;88.20;;;;;;5092998;28;20800;-71
2022/05/26 06:39:28;;;;;;;4.97;4.67;;;23.00;87.10;;;;;;5094648;28;20410;-71
2022/05/26 06:42:07;;;;;;;4.43;3.93;;;22.90;85.70;;;;;;5074557;28;20926;-69
2022/05/26 06:44:36;;;;;;;6.10;5.70;;;22.90;85.80;;;;;;5074666;28;20445;-71
2022/05/26 06:47:03;;;;;;;6.83;4.90;;;23.00;87.30;;;;;;5074519;28;20501;-72
2022/05/26 06:49:30;;;;;;;4.73;4.43;;;23.00;88.20;;;;;;5074356;28;20483;-71
2022/05/26 06:51:57;;;;;;;4.57;4.37;;;23.00;88.80;;;;;;5074414;28;20930;-71
2022/05/26 06:54:24;;;;;;;4.97;4.77;;;23.00;88.50;;;;;;5074508;28;20450;-72
2022/05/26 06:56:52;;;;;;;5.53;5.03;;;23.10;88.50;;;;;;5074344;28;20446;-72
2022/05/26 06:59:19;;;;;;;5.53;5.23;;;23.10;88.30;;;;;;5074451;28;20632;-71
2022/05/26 07:01:45;;;;;;;5.03;4.77;;;23.10;87.10;;;;;;5092968;28;20446;-71
2022/05/26 07:04:12;;;;;;;5.00;4.60;;;23.00;87.00;;;;;;5094582;28;20442;-72
2022/05/26 07:06:39;;;;;;;4.93;4.53;;;23.00;86.60;;;;;;5094479;28;20442;-71
2022/05/26 07:09:06;;;;;;;4.67;4.47;;;23.00;86.60;;;;;;5078213;28;20451;-71
2022/05/26 07:11:33;;;;;;;4.77;4.47;;;23.00;86.20;;;;;;5074063;28;20510;-72
2022/05/26 07:14:01;;;;;;;4.97;4.73;;;23.00;86.40;;;;;;5074030;28;20444;-71
2022/05/26 07:16:28;;;;;;;6.27;5.43;;;23.00;86.20;;;;;;5074019;28;20458;-69
2022/05/26 07:18:55;;;;;;;5.27;5.07;;;23.00;86.00;;;;;;5087350;28;20853;-73
2022/05/26 07:21:22;;;;;;;5.70;5.30;;;23.10;87.30;;;;;;5094381;28;20465;-73
2022/05/26 07:23:49;;;;;;;5.50;4.93;;;23.00;86.20;;;;;;5094444;28;20435;-73
2022/05/26 07:26:16;;;;;;;4.83;4.63;;;23.00;86.30;;;;;;5094444;28;20456;-73
2022/05/26 07:28:44;;;;;;;5.33;5.03;;;23.00;86.30;;;;;;5081473;28;20513;-73
2022/05/26 07:31:14;;;;;;;7.10;5.20;;;23.00;86.20;;;;;;5073822;28;20483;-70
2022/05/26 07:33:41;;;;;;;5.67;5.27;;;23.10;87.20;;;;;;5073600;28;20443;-69
2022/05/26 07:41:16;;;;;;;5.13;4.83;;;23.10;87.10;;;;;;5077826;28;20449;-69
2022/05/26 07:41:41;;;;;;;5.50;5.00;;;23.10;89.50;;;;;;5073480;28;21022;-69
2022/05/26 07:44:08;;;;;;;6.30;5.80;;;23.10;89.70;;;;;;5073696;28;20439;-71
2022/05/26 07:46:36;;;;;;;5.10;4.90;;;23.10;88.50;;;;;;5080800;28;20431;-69
2022/05/26 07:49:05;;;;;;;5.00;4.80;;;23.10;88.20;;;;;;5093436;28;20464;-69
2022/05/26 07:51:32;;;;;;;5.90;5.50;;;23.10;88.30;;;;;;5093440;28;21031;-71
2022/05/26 07:54:00;;;;;;;6.57;5.57;;;23.10;88.60;;;;;;5093614;28;20454;-71
2022/05/26 07:56:28;;;;;;;5.57;5.23;;;23.10;88.60;;;;;;5087405;28;20454;-68
2022/05/26 07:58:55;;;;;;;6.23;5.63;;;23.10;88.80;;;;;;5073201;28;20474;-69
2022/05/26 08:01:22;;;;;;;6.60;6.20;;;23.10;88.40;;;;;;5073151;28;20442;-70
2022/05/26 08:03:53;;;;;;;6.03;5.73;;;23.10;88.60;;;;;;5073277;28;20440;-70
2022/05/26 08:06:20;;;;;;;5.30;4.93;;;23.10;89.10;;;;;;5087481;28;20550;-70
2022/05/26 08:08:47;;;;;;;5.50;5.20;;;23.10;87.20;;;;;;5093061;28;20969;-71
2022/05/26 08:11:13;;;;;;;7.63;6.90;;;23.20;87.30;;;;;;5093217;28;20486;-71
2022/05/26 08:13:40;;;;;;;5.37;5.07;;;23.10;87.00;;;;;;5093377;28;20555;-71
2022/05/26 08:16:07;;;;;;;5.07;4.77;;;23.10;86.30;;;;;;5080434;28;20465;-70
2022/05/26 08:18:35;;;;;;;4.80;4.50;;;23.10;86.40;;;;;;5072603;28;20838;-72
2022/05/26 08:21:07;;;;;;;9.70;6.30;;;23.10;86.70;;;;;;5072990;28;20444;-71
2022/05/26 08:23:34;;;;;;;6.10;5.70;;;23.10;86.60;;;;;;5072657;28;20941;-71
2022/05/26 08:26:01;;;;;;;5.73;5.27;;;23.10;86.00;;;;;;5083541;28;20450;-73
2022/05/26 08:28:27;;;;;;;5.10;4.90;;;23.10;85.20;;;;;;5092784;28;20480;-72
2022/05/26 08:30:54;;;;;;;5.20;4.90;;;23.10;85.00;;;;;;5092622;28;20505;-72
2022/05/26 08:33:21;;;;;;;5.97;5.30;;;23.10;86.40;;;;;;5089902;28;20447;-74
2022/05/26 08:35:48;;;;;;;6.07;5.67;;;23.10;87.60;;;;;;5074192;28;20447;-72
2022/05/26 08:38:16;;;;;;;6.17;5.67;;;23.10;87.30;;;;;;5072960;28;20485;-73
2022/05/26 08:40:48;;;;;;;5.93;5.00;;;23.10;86.20;;;;;;5072852;28;20443;-73
2022/05/26 08:43:20;;;;;;;6.10;5.70;;;23.00;86.20;;;;;;5088745;28;20453;-73
2022/05/26 08:45:50;;;;;;;5.80;5.30;;;23.00;85.20;;;;;;5093726;28;20443;-73
2022/05/26 08:48:38;;;;;;;6.20;5.67;;;22.90;85.00;;;;;;5093388;28;20489;-73
2022/05/26 08:51:06;;;;;;;5.67;5.37;;;22.90;84.80;;;;;;5092959;28;20590;-73
2022/05/26 08:53:39;;;;;;;5.93;5.57;;;22.90;84.50;;;;;;5075231;28;20454;-72
2022/05/26 08:56:08;;;;;;;5.47;5.10;;;22.90;84.30;;;;;;5072410;28;20450;-68
2022/05/26 08:58:42;;;;;;;6.80;6.30;;;23.00;84.10;;;;;;5071801;28;20970;-68
2022/05/26 09:01:12;;;;;;;6.00;5.57;;;23.00;81.40;;;;;;5072007;28;20450;-68
2022/05/26 09:03:39;;;;;;;6.00;5.57;;;22.90;80.70;;;;;;5089764;28;20447;-68
2022/05/26 09:06:08;;;;;;;5.57;5.17;;;22.90;80.00;;;;;;5092334;28;20443;-68
2022/05/26 09:14:22;;;;;;;7.33;6.73;;;22.80;78.50;;;;;;5092314;28;20529;-69
2022/05/26 09:16:48;;;;;;;5.10;4.90;;;22.90;78.50;;;;;;5091536;28;20945;-70
2022/05/26 09:19:17;;;;;;;5.67;5.37;;;22.90;78.70;;;;;;5092320;28;20442;-68
2022/05/26 09:21:45;;;;;;;7.83;5.20;;;22.90;77.70;;;;;;5090059;28;20442;-69
2022/05/26 09:24:24;;;;;;;5.57;5.17;;;22.90;77.60;;;;;;5071782;28;20462;-68
2022/05/26 09:26:55;;;;;;;6.23;5.67;;;22.90;77.10;;;;;;5071431;28;20447;-69
2022/05/26 09:29:27;;;;;;;6.30;5.93;;;22.90;76.90;;;;;;5071960;28;20510;-68
2022/05/26 09:31:55;;;;;;;5.37;5.07;;;22.90;76.20;;;;;;5074260;28;20474;-69
2022/05/26 09:34:28;;;;;;;6.17;5.87;;;22.90;76.50;;;;;;5091914;28;20438;-68
2022/05/26 09:36:59;;;;;;;6.00;5.50;;;22.90;76.30;;;;;;5091625;28;20442;-70
2022/05/26 09:39:34;;;;;;;6.37;5.80;;;22.90;76.60;;;;;;5091921;28;20500;-68
2022/05/26 09:42:03;;;;;;;6.03;5.63;;;22.90;76.80;;;;;;5086838;28;20829;-68
2022/05/26 09:44:34;;;;;;;5.63;5.30;;;22.90;76.90;;;;;;5071745;28;20444;-68
2022/05/26 09:47:23;;;;;;;5.57;5.37;;;22.90;77.20;;;;;;5071257;28;20554;-68
2022/05/26 09:49:54;;;;;;;6.67;6.17;;;22.90;76.60;;;;;;5076675;28;20486;-74
2022/05/26 09:52:23;;;;;;;6.13;5.60;;;22.90;76.80;;;;;;5092057;28;20442;-73
2022/05/26 09:55:17;;;;;;;6.17;5.87;;;22.90;76.70;;;;;;5091663;28;20959;-73
2022/05/26 09:57:44;;;;;;;6.40;5.93;;;22.80;76.40;;;;;;5091308;28;20461;-70
2022/05/26 10:00:17;;;;;;;6.53;5.93;;;22.90;76.60;;;;;;5083421;28;20435;-70
2022/05/26 10:02:47;;;;;;;5.57;5.17;;;22.80;76.30;;;;;;5071615;28;20462;-69
2022/05/26 10:05:22;;;;;;;6.00;5.50;;;22.90;76.60;;;;;;5071556;28;20801;-71
2022/05/26 10:08:01;;;;;;;5.63;5.17;;;22.80;76.40;;;;;;5071112;28;20454;-71
2022/05/26 10:10:33;;;;;;;5.70;5.20;;;22.90;76.80;;;;;;5081674;28;20949;-72
2022/05/26 10:13:32;;;;;;;6.00;5.60;;;22.90;76.20;;;;;;5091929;28;20442;-71
2022/05/26 10:16:09;;;;;;;4.73;4.50;;;22.80;75.10;;;;;;5091379;28;20453;-71
2022/05/26 10:19:04;;;;;;;5.70;5.30;;;22.80;75.20;;;;;;5091376;28;20466;-75
2022/05/26 10:21:47;;;;;;;5.47;5.10;;;22.80;74.70;;;;;;5066495;28;20439;-72
2022/05/26 10:24:35;;;;;;;5.93;5.40;;;22.80;74.60;;;;;;5071428;28;20454;-70
2022/05/26 10:27:14;;;;;;;5.43;5.03;;;22.80;73.90;;;;;;5071391;28;20481;-69
2022/05/26 10:29:55;;;;;;;8.23;7.53;;;22.80;73.70;;;;;;5071089;28;20614;-62
2022/05/26 10:32:33;;;;;;;7.70;7.30;;;22.90;73.90;;;;;;5079209;28;20842;-61
2022/05/26 10:35:13;;;;;;;7.50;7.20;;;22.90;74.30;;;;;;5091420;28;20449;-63
2022/05/26 10:38:00;;;;;;;7.37;7.00;;;22.90;74.00;;;;;;5091042;28;20480;-63
2022/05/26 10:40:36;;;;;;;6.90;6.43;;;22.90;73.50;;;;;;5084995;28;20522;-62
2022/05/26 10:43:11;;;;;;;6.40;6.20;;;22.80;72.30;;;;;;5071146;28;20450;-63
2022/05/26 10:45:40;;;;;;;7.20;6.90;;;22.80;71.90;;;;;;5070830;28;20439;-67
2022/05/26 10:48:14;;;;;;;6.40;6.20;;;22.80;71.60;;;;;;5070709;28;20816;-63
2022/05/26 10:50:45;;;;;;;8.80;8.20;;;22.80;72.30;;;;;;5078277;28;20486;-65
2022/05/26 10:53:20;;;;;;;7.93;7.43;;;22.80;72.60;;;;;;5091866;28;20446;-64
2022/05/26 10:55:53;;;;;;;7.00;6.80;;;22.80;72.70;;;;;;5094783;28;20808;-64
2022/05/26 10:58:29;;;;;;;7.20;6.80;;;22.80;72.40;;;;;;5092258;28;20458;-65
2022/05/26 11:01:00;;;;;;;7.77;7.27;;;22.80;71.70;;;;;;5074349;28;20434;-65
2022/05/26 11:03:35;;;;;;;6.70;6.47;;;22.90;71.20;;;;;;5074342;28;20538;-64
2022/05/26 11:06:07;;;;;;;8.10;7.60;;;22.80;70.80;;;;;;5074388;28;20451;-65
2022/05/26 11:08:40;;;;;;;7.53;7.13;;;22.90;70.80;;;;;;5077347;28;20462;-65
2022/05/26 11:11:14;;;;;;;7.97;7.57;;;22.90;70.60;;;;;;5094376;28;20488;-64
2022/05/26 11:13:52;;;;;;;7.50;7.20;;;22.90;70.70;;;;;;5094318;28;20446;-64
2022/05/26 11:19:21;;;;;;;7.27;6.90;;;22.90;69.50;;;;;;5094294;28;20421;-66
2022/05/26 11:21:48;;;;;;;8.50;8.00;;;22.80;68.90;;;;;;5080874;28;20450;-67
2022/05/26 11:24:16;;;;;;;7.63;7.43;;;22.80;68.90;;;;;;5074027;28;20439;-66
2022/05/26 11:26:48;;;;;;;7.33;7.03;;;22.90;69.20;;;;;;5073449;28;20439;-66
2022/05/26 11:29:21;;;;;;;7.63;7.33;;;22.80;68.60;;;;;;5073765;28;20439;-65
2022/05/26 11:37:30;;;;;;;6.70;6.50;;;22.90;68.20;;;;;;5093822;28;20572;-64
2022/05/26 11:40:00;;;;;;;7.90;7.50;;;22.80;68.10;;;;;;5094081;28;20454;-64
2022/05/26 11:42:32;;;;;;;8.10;7.83;;;22.80;66.60;;;;;;5093723;28;20450;-65
2022/05/26 11:45:21;;;;;;;8.10;7.53;;;22.90;66.30;;;;;;5086427;28;20847;-64
2022/05/26 11:47:51;;;;;;;7.60;7.30;;;22.90;66.20;;;;;;5073269;28;20830;-67
2022/05/26 11:50:28;;;;;;;7.50;7.10;;;22.80;66.30;;;;;;5073714;28;20435;-66
2022/05/26 11:53:12;;;;;;;7.10;6.90;;;22.80;67.30;;;;;;5073563;28;20446;-63
2022/05/26 11:55:49;;;;;;;8.00;7.70;;;22.90;68.30;;;;;;5073307;28;20443;-66
2022/05/26 11:58:31;;;;;;;7.70;7.30;;;22.90;69.00;;;;;;5091434;28;20462;-65
2022/05/26 12:01:16;;;;;;;7.67;7.37;;;22.90;69.40;;;;;;5093504;28;20438;-64
2022/05/26 12:04:02;;;;;;;7.90;7.60;;;22.90;69.70;;;;;;5093266;28;20457;-64
2022/05/26 12:06:35;;;;;;;7.80;7.40;;;23.00;70.00;;;;;;5075149;28;20447;-63
2022/05/26 12:09:04;;;;;;;7.77;7.37;;;22.90;70.10;;;;;;5072709;28;20447;-65
2022/05/26 12:11:55;;;;;;;7.97;7.43;;;23.00;70.40;;;;;;5072883;28;20837;-64
2022/05/26 12:14:23;;;;;;;7.23;6.93;;;23.00;70.60;;;;;;5072929;28;20440;-62
2022/05/26 12:16:52;;;;;;;7.00;6.70;;;23.00;70.50;;;;;;5081475;28;20450;-62
2022/05/26 12:19:40;;;;;;;7.83;7.53;;;23.00;70.30;;;;;;5072790;28;20701;-63
2022/05/26 12:22:21;;;;;;;7.50;7.30;;;23.00;70.30;;;;;;5072928;28;20471;-62
2022/05/26 12:25:19;;;;;;;7.07;6.87;;;23.10;70.60;;;;;;5072490;28;20440;-60
2022/05/26 12:28:27;;;;;;;6.83;6.63;;;23.10;70.60;;;;;;5089619;28;20883;-59
2022/05/26 12:31:12;;;;;;;7.37;7.07;;;23.10;70.70;;;;;;5080705;28;20486;-61
2022/05/26 12:34:13;;;;;;;6.93;6.63;;;23.10;70.70;;;;;;5092764;28;20955;-61
2022/05/26 12:37:03;;;;;;;8.00;7.60;;;23.10;70.90;;;;;;5085461;28;20623;-58
2022/05/26 12:40:03;;;;;;;7.20;7.00;;;23.10;70.90;;;;;;5067152;28;20942;-63
2022/05/26 12:42:51;;;;;;;7.47;7.27;;;23.10;70.80;;;;;;5072464;28;20444;-66
2022/05/26 12:45:30;;;;;;;6.60;6.37;;;23.10;70.60;;;;;;5068532;28;20520;-66
2022/05/26 12:48:48;;;;;;;7.20;6.80;;;23.10;70.80;;;;;;5089464;28;20842;-68
2022/05/26 12:51:17;;;;;;;7.57;7.17;;;23.10;71.30;;;;;;5072175;28;20475;-66
2022/05/26 12:53:51;;;;;;;7.53;7.23;;;23.10;71.80;;;;;;5072079;28;20443;-65
2022/05/26 12:56:24;;;;;;;8.03;7.53;;;23.20;71.90;;;;;;5072221;28;20445;-66
2022/05/26 12:58:56;;;;;;;7.83;7.07;;;23.20;72.00;;;;;;5071773;28;20981;-67
2022/05/26 13:01:24;;;;;;;6.63;6.43;;;23.20;72.00;;;;;;5086663;28;20449;-65
2022/05/26 13:03:58;;;;;;;6.70;6.50;;;23.20;72.10;;;;;;5092412;28;20926;-64
2022/05/26 13:06:30;;;;;;;6.80;6.50;;;23.20;71.90;;;;;;5092480;28;20446;-65
2022/05/26 13:09:04;;;;;;;6.93;6.60;;;23.20;71.90;;;;;;5091347;28;20837;-66
2022/05/26 13:11:34;;;;;;;7.40;7.10;;;23.30;72.10;;;;;;5092245;28;20482;-65
2022/05/26 13:14:05;;;;;;;6.80;6.60;;;23.30;72.10;;;;;;5092120;28;20450;-66
2022/05/26 13:16:34;;;;;;;6.70;6.50;;;23.30;71.90;;;;;;5092141;28;20464;-65
2022/05/26 13:19:11;;;;;;;5.78;5.57;;;23.30;71.80;;;;;;5082823;28;20537;-64
2022/05/26 13:21:40;;;;;;;7.13;6.90;;;23.30;71.90;;;;;;5072020;28;20224;-66
2022/05/26 13:24:15;;;;;;;7.00;6.70;;;23.30;71.90;;;;;;5072221;28;20443;-65
2022/05/26 13:26:43;;;;;;;6.67;6.47;;;23.40;71.40;;;;;;5071438;28;20937;-65
2022/05/26 13:29:11;;;;;;;7.10;6.80;;;23.40;71.20;;;;;;5071697;28;20443;-66
2022/05/26 13:34:28;;;;;;;7.33;6.93;;;23.40;70.90;;;;;;5072103;28;20461;-66
2022/05/26 13:36:56;;;;;;;7.27;6.97;;;23.40;71.00;;;;;;5080929;28;20465;-65
2022/05/26 13:39:26;;;;;;;6.80;6.60;;;23.40;71.20;;;;;;5091763;28;20952;-66
2022/05/26 13:41:54;;;;;;;6.60;6.40;;;23.40;71.20;;;;;;5086481;28;20462;-64
2022/05/26 13:44:28;;;;;;;7.00;6.70;;;23.40;71.30;;;;;;5071359;28;20450;-61
2022/05/26 13:46:57;;;;;;;6.30;6.10;;;23.40;71.40;;;;;;5079652;28;20808;-64
2022/05/26 13:49:32;;;;;;;7.67;7.37;;;23.40;71.40;;;;;;5091242;28;20536;-63